Time;durP1;ratioP1;P1;durP2;ratioP2;P2;SDS_P1;SDS_P2;PMS_P1;PMS_P2;Temp;Humidity;BMP_temperature;BMP_pressure;BME280_temperature;BME280_humidity;BME280_pressure;Samples;Min_cycle;Max_cycle;Signal;HPM_P1;HPM_P2
2023/07/07 00:02:23;;;;;;;3.00;2.75;;;;;;;;;;5091244;28;20083;-83
2023/07/07 00:04:53;;;;;;;5.00;2.50;;;;;;;;;;5091531;28;20052;-84
2023/07/07 00:07:21;;;;;;;3.58;2.88;;;;;;;;;;5091440;28;20135;-85
2023/07/07 00:09:48;;;;;;;4.32;3.08;;;;;;;;;;5092721;28;20047;-85
2023/07/07 00:12:16;;;;;;;4.30;2.83;;;;;;;;;;5092544;28;20097;-84
2023/07/07 00:14:43;;;;;;;2.63;2.42;;;;;;;;;;5091366;28;20407;-85
2023/07/07 00:17:12;;;;;;;4.53;3.30;;;;;;;;;;5091145;28;20050;-85
2023/07/07 00:19:39;;;;;;;3.08;2.75;;;;;;;;;;5091639;28;20047;-84
2023/07/07 00:22:07;;;;;;;3.00;2.80;;;;;;;;;;5091187;28;20052;-85
2023/07/07 00:24:34;;;;;;;2.75;2.60;;;;;;;;;;5092657;28;20048;-85
2023/07/07 00:27:02;;;;;;;4.43;3.08;;;;;;;;;;5091326;28;20121;-84
2023/07/07 00:29:29;;;;;;;3.53;3.22;;;;;;;;;;5091233;28;20101;-84
2023/07/07 00:31:58;;;;;;;5.55;2.78;;;;;;;;;;5092177;28;20049;-85
2023/07/07 00:34:26;;;;;;;3.75;3.22;;;;;;;;;;5091477;28;20044;-85
2023/07/07 00:36:53;;;;;;;5.55;2.90;;;;;;;;;;5092455;28;20048;-85
2023/07/07 00:39:20;;;;;;;3.17;2.88;;;;;;;;;;5091234;28;20055;-85
2023/07/07 00:41:48;;;;;;;4.32;3.38;;;;;;;;;;5092128;28;20064;-84
2023/07/07 00:44:15;;;;;;;5.47;3.15;;;;;;;;;;5090925;28;20054;-85
2023/07/07 00:46:42;;;;;;;3.80;2.75;;;;;;;;;;5091333;28;20044;-85
2023/07/07 00:49:14;;;;;;;3.30;3.00;;;;;;;;;;5092449;28;20325;-85
2023/07/07 00:51:45;;;;;;;4.07;2.72;;;;;;;;;;5091144;28;20454;-85
2023/07/07 00:54:15;;;;;;;3.42;2.90;;;;;;;;;;5091097;28;20109;-85
2023/07/07 00:56:48;;;;;;;5.93;3.05;;;;;;;;;;5090977;28;20040;-85
2023/07/07 00:59:25;;;;;;;4.53;3.10;;;;;;;;;;5092139;28;20484;-85
2023/07/07 01:01:56;;;;;;;3.40;3.10;;;;;;;;;;5092270;28;20048;-85
2023/07/07 01:04:23;;;;;;;2.92;2.72;;;;;;;;;;5091131;28;20051;-85
2023/07/07 01:06:54;;;;;;;3.42;3.00;;;;;;;;;;5090627;28;20138;-85
2023/07/07 01:09:21;;;;;;;5.25;3.15;;;;;;;;;;5092164;28;20044;-85
2023/07/07 01:11:49;;;;;;;4.35;3.33;;;;;;;;;;5090769;28;20048;-85
2023/07/07 01:14:19;;;;;;;3.33;3.00;;;;;;;;;;5091067;28;20096;-85
2023/07/07 01:16:55;;;;;;;3.53;2.90;;;;;;;;;;5092090;28;20052;-85
2023/07/07 01:19:40;;;;;;;4.32;3.47;;;;;;;;;;5090749;28;20476;-86
2023/07/07 01:22:35;;;;;;;3.42;3.10;;;;;;;;;;5095652;28;20431;-85
2023/07/07 01:25:10;;;;;;;3.83;2.58;;;;;;;;;;5095666;28;20044;-86
2023/07/07 01:27:44;;;;;;;5.03;4.10;;;;;;;;;;5094380;28;20597;-85
2023/07/07 01:30:30;;;;;;;3.42;3.13;;;;;;;;;;5094221;28;20486;-85
2023/07/07 01:32:58;;;;;;;5.07;3.42;;;;;;;;;;5094300;28;20044;-86
2023/07/07 01:35:25;;;;;;;4.15;3.45;;;;;;;;;;5094473;28;20134;-85
2023/07/07 01:37:54;;;;;;;4.07;3.45;;;;;;;;;;5095207;28;20040;-85
2023/07/07 01:40:23;;;;;;;4.65;3.13;;;;;;;;;;5095005;28;20052;-85
2023/07/07 01:42:53;;;;;;;5.78;3.45;;;;;;;;;;5094980;28;20056;-85
2023/07/07 01:45:24;;;;;;;3.83;3.53;;;;;;;;;;5095248;28;20048;-85
2023/07/07 01:48:06;;;;;;;5.55;3.92;;;;;;;;;;5094165;28;20566;-86
2023/07/07 01:50:34;;;;;;;5.85;3.92;;;;;;;;;;5095142;28;20408;-85
2023/07/07 01:53:04;;;;;;;4.13;3.70;;;;;;;;;;5093709;28;20044;-85
2023/07/07 01:55:36;;;;;;;4.45;3.53;;;;;;;;;;5095145;28;20147;-85
2023/07/07 01:58:05;;;;;;;4.05;3.67;;;;;;;;;;5094233;28;20048;-85
2023/07/07 02:00:33;;;;;;;4.70;3.83;;;;;;;;;;5093925;28;20051;-85
2023/07/07 02:03:01;;;;;;;5.07;3.35;;;;;;;;;;5093258;28;20047;-85
2023/07/07 02:05:28;;;;;;;6.13;4.47;;;;;;;;;;5094454;28;20131;-85
2023/07/07 02:07:58;;;;;;;4.03;3.63;;;;;;;;;;5094532;28;20093;-85
2023/07/07 02:10:26;;;;;;;6.25;3.47;;;;;;;;;;5094606;28;20048;-85
2023/07/07 02:12:53;;;;;;;3.92;3.50;;;;;;;;;;5093090;28;20048;-85
2023/07/07 02:15:20;;;;;;;8.38;4.05;;;;;;;;;;5094655;28;20052;-85
2023/07/07 02:17:48;;;;;;;5.95;4.05;;;;;;;;;;5093088;28;20098;-84
2023/07/07 02:20:15;;;;;;;3.67;3.38;;;;;;;;;;5093884;28;20044;-85
2023/07/07 02:22:43;;;;;;;5.45;3.95;;;;;;;;;;5092945;28;20074;-85
2023/07/07 02:25:10;;;;;;;4.75;3.75;;;;;;;;;;5094246;28;20109;-85
2023/07/07 02:27:37;;;;;;;5.13;4.25;;;;;;;;;;5093265;28;20047;-85
2023/07/07 02:30:05;;;;;;;4.50;3.97;;;;;;;;;;5092774;28;20101;-85
2023/07/07 02:32:32;;;;;;;5.93;4.47;;;;;;;;;;5092206;28;20052;-86
2023/07/07 02:35:01;;;;;;;7.57;4.65;;;;;;;;;;5094062;28;20091;-85
2023/07/07 02:37:29;;;;;;;7.22;4.45;;;;;;;;;;5092832;28;20067;-85
2023/07/07 02:39:56;;;;;;;4.88;4.10;;;;;;;;;;5094042;28;20223;-86
2023/07/07 02:42:24;;;;;;;4.85;4.45;;;;;;;;;;5092559;28;20101;-85
2023/07/07 02:44:51;;;;;;;6.30;4.18;;;;;;;;;;5092524;28;20208;-85
2023/07/07 02:47:19;;;;;;;4.22;3.40;;;;;;;;;;5092852;28;20052;-85
2023/07/07 02:49:46;;;;;;;4.00;3.70;;;;;;;;;;5093699;28;20553;-86
2023/07/07 02:52:13;;;;;;;7.30;4.03;;;;;;;;;;5093612;28;20469;-85
2023/07/07 02:54:41;;;;;;;4.80;4.40;;;;;;;;;;5093719;28;20048;-86
2023/07/07 02:57:08;;;;;;;5.90;3.67;;;;;;;;;;5092272;28;20052;-85
2023/07/07 02:59:35;;;;;;;4.43;4.03;;;;;;;;;;5092297;28;20091;-85
2023/07/07 03:02:02;;;;;;;4.88;3.83;;;;;;;;;;5092049;28;20090;-85
2023/07/07 03:04:30;;;;;;;4.57;4.13;;;;;;;;;;5092333;28;20076;-86
2023/07/07 03:06:57;;;;;;;6.57;4.18;;;;;;;;;;5092473;28;20101;-85
2023/07/07 03:09:24;;;;;;;4.53;4.07;;;;;;;;;;5092554;28;20075;-85
2023/07/07 03:11:52;;;;;;;5.07;4.50;;;;;;;;;;5092938;28;20072;-84
2023/07/07 03:14:19;;;;;;;5.57;4.63;;;;;;;;;;5091817;28;20056;-85
2023/07/07 03:16:51;;;;;;;5.78;4.95;;;;;;;;;;5092260;28;20052;-85
2023/07/07 03:19:19;;;;;;;7.35;4.80;;;;;;;;;;5092074;28;20048;-84
2023/07/07 03:21:47;;;;;;;6.60;5.10;;;;;;;;;;5092037;28;20044;-85
2023/07/07 03:24:14;;;;;;;5.78;5.15;;;;;;;;;;5093154;28;20067;-85
2023/07/07 03:26:42;;;;;;;5.25;4.63;;;;;;;;;;5092760;28;20072;-85
2023/07/07 03:29:09;;;;;;;5.10;4.40;;;;;;;;;;5091912;28;20083;-85
2023/07/07 03:31:36;;;;;;;6.88;4.18;;;;;;;;;;5091847;28;20047;-85
2023/07/07 03:34:05;;;;;;;4.70;4.30;;;;;;;;;;5091795;28;20052;-85
2023/07/07 03:36:33;;;;;;;7.53;4.93;;;;;;;;;;5091923;28;20135;-85
2023/07/07 03:39:01;;;;;;;5.43;4.93;;;;;;;;;;5091340;28;20040;-85
2023/07/07 03:41:29;;;;;;;6.22;4.80;;;;;;;;;;5092330;28;20164;-86
2023/07/07 03:43:56;;;;;;;5.97;5.43;;;;;;;;;;5092169;28;20044;-86
2023/07/07 03:46:25;;;;;;;6.68;5.85;;;;;;;;;;5091524;28;20048;-85
2023/07/07 03:48:53;;;;;;;8.13;6.13;;;;;;;;;;5092728;28;20093;-85
2023/07/07 03:51:21;;;;;;;7.45;5.80;;;;;;;;;;5091407;28;20059;-85
2023/07/07 03:53:49;;;;;;;8.20;6.72;;;;;;;;;;5091376;28;20446;-85
2023/07/07 03:56:17;;;;;;;7.13;6.15;;;;;;;;;;5091342;28;20048;-85
2023/07/07 03:58:44;;;;;;;6.10;5.07;;;;;;;;;;5091409;28;20051;-85
2023/07/07 04:01:13;;;;;;;8.00;5.95;;;;;;;;;;5091095;28;20105;-85
2023/07/07 04:03:42;;;;;;;6.35;5.75;;;;;;;;;;5091570;28;20476;-85
2023/07/07 04:06:12;;;;;;;7.63;5.50;;;;;;;;;;5090979;28;20044;-85
2023/07/07 04:08:39;;;;;;;10.30;5.75;;;;;;;;;;5091393;28;20044;-85
2023/07/07 04:11:08;;;;;;;7.82;5.50;;;;;;;;;;5091350;28;20446;-85
2023/07/07 04:13:37;;;;;;;5.35;4.63;;;;;;;;;;5092920;28;20440;-85
2023/07/07 04:16:04;;;;;;;5.97;4.72;;;;;;;;;;5091527;28;20131;-85
2023/07/07 04:18:32;;;;;;;4.75;3.90;;;;;;;;;;5092319;28;20128;-85
2023/07/07 04:21:06;;;;;;;7.20;4.05;;;;;;;;;;5090744;28;20048;-85
2023/07/07 04:23:34;;;;;;;4.10;3.70;;;;;;;;;;5092270;28;20040;-85
2023/07/07 04:26:02;;;;;;;5.57;3.97;;;;;;;;;;5091101;28;20087;-85
2023/07/07 04:28:32;;;;;;;7.03;4.13;;;;;;;;;;5092405;28;20557;-85
2023/07/07 04:30:59;;;;;;;4.68;4.07;;;;;;;;;;5092346;28;20420;-85
2023/07/07 04:33:28;;;;;;;4.38;3.97;;;;;;;;;;5092091;28;20561;-84
2023/07/07 04:35:56;;;;;;;5.25;4.30;;;;;;;;;;5091104;28;20040;-84
2023/07/07 04:38:30;;;;;;;5.00;3.90;;;;;;;;;;5091163;28;20052;-85
2023/07/07 04:41:06;;;;;;;4.00;3.70;;;;;;;;;;5091967;28;20415;-85
2023/07/07 04:43:34;;;;;;;6.55;4.10;;;;;;;;;;5091786;28;20496;-84
2023/07/07 04:46:02;;;;;;;4.40;4.00;;;;;;;;;;5091968;28;20056;-84
2023/07/07 04:48:29;;;;;;;4.70;4.07;;;;;;;;;;5091225;28;20476;-85
2023/07/07 04:50:58;;;;;;;5.05;4.07;;;;;;;;;;5091961;28;20078;-84
2023/07/07 04:53:28;;;;;;;5.60;4.38;;;;;;;;;;5091682;28;20047;-84
2023/07/07 04:55:56;;;;;;;3.70;3.40;;;;;;;;;;5095843;28;20491;-84
2023/07/07 04:58:27;;;;;;;5.45;3.90;;;;;;;;;;5095653;28;20476;-84
2023/07/07 05:01:07;;;;;;;7.18;3.83;;;;;;;;;;5095981;28;20044;-85
2023/07/07 05:03:34;;;;;;;4.18;3.45;;;;;;;;;;5095001;28;20106;-84
2023/07/07 05:06:02;;;;;;;5.47;3.90;;;;;;;;;;5094687;28;20079;-85
2023/07/07 05:08:31;;;;;;;4.10;3.70;;;;;;;;;;5095886;28;20084;-85
2023/07/07 05:10:59;;;;;;;4.78;3.42;;;;;;;;;;5094177;28;20907;-83
2023/07/07 05:13:26;;;;;;;5.38;3.40;;;;;;;;;;5095892;28;20568;-83
2023/07/07 05:16:04;;;;;;;5.68;3.92;;;;;;;;;;5094380;28;20127;-83
2023/07/07 05:18:32;;;;;;;3.30;3.00;;;;;;;;;;5094483;28;20056;-83
2023/07/07 05:20:59;;;;;;;2.92;2.72;;;;;;;;;;5094264;28;20051;-83
2023/07/07 05:23:32;;;;;;;5.65;3.08;;;;;;;;;;5095529;28;20048;-84
2023/07/07 05:25:59;;;;;;;5.35;2.70;;;;;;;;;;5094398;28;20078;-83
2023/07/07 05:28:26;;;;;;;6.20;2.75;;;;;;;;;;5094443;28;20047;-83
2023/07/07 05:30:54;;;;;;;5.47;3.20;;;;;;;;;;5094219;28;20511;-83
2023/07/07 05:33:21;;;;;;;11.10;4.32;;;;;;;;;;5095275;28;20048;-83
2023/07/07 05:35:50;;;;;;;20.50;4.93;;;;;;;;;;5094002;28;20450;-84
2023/07/07 05:38:18;;;;;;;12.70;3.97;;;;;;;;;;5094174;28;20047;-83
2023/07/07 05:40:45;;;;;;;7.68;3.03;;;;;;;;;;5095261;28;20047;-83
2023/07/07 05:43:13;;;;;;;9.75;3.30;;;;;;;;;;5095072;28;20105;-83
2023/07/07 05:45:41;;;;;;;4.60;2.70;;;;;;;;;;5094207;28;20051;-83
2023/07/07 05:48:10;;;;;;;11.13;3.70;;;;;;;;;;5094853;28;20557;-83
2023/07/07 05:50:38;;;;;;;4.93;2.80;;;;;;;;;;5093721;28;20077;-83
2023/07/07 05:53:06;;;;;;;7.85;3.38;;;;;;;;;;5093900;28;20082;-84
2023/07/07 05:55:35;;;;;;;11.13;3.72;;;;;;;;;;5093838;28;20048;-84
2023/07/07 05:58:02;;;;;;;11.63;3.58;;;;;;;;;;5094930;28;20048;-84
2023/07/07 06:00:31;;;;;;;9.05;3.80;;;;;;;;;;5094775;28;20488;-82
2023/07/07 06:02:59;;;;;;;18.30;4.25;;;;;;;;;;5093269;28;20052;-83
2023/07/07 06:05:29;;;;;;;29.33;5.60;;;;;;;;;;5094077;28;20044;-83
2023/07/07 06:07:57;;;;;;;25.45;5.15;;;;;;;;;;5093730;28;20048;-84
2023/07/07 06:10:25;;;;;;;37.83;5.25;;;;;;;;;;5093345;28;20488;-83
2023/07/07 06:12:53;;;;;;;32.97;5.57;;;;;;;;;;5093183;28;20044;-84
2023/07/07 06:15:20;;;;;;;25.75;4.40;;;;;;;;;;5094190;28;20097;-83
2023/07/07 06:17:48;;;;;;;16.33;4.15;;;;;;;;;;5093404;28;20052;-83
2023/07/07 06:20:16;;;;;;;19.42;4.20;;;;;;;;;;5093344;28;20079;-83
2023/07/07 06:22:43;;;;;;;24.80;4.93;;;;;;;;;;5092774;28;20101;-83
2023/07/07 06:25:11;;;;;;;19.60;5.03;;;;;;;;;;5093349;28;20454;-84
2023/07/07 06:27:38;;;;;;;26.75;4.90;;;;;;;;;;5093613;28;20048;-84
2023/07/07 06:30:06;;;;;;;28.05;5.40;;;;;;;;;;5093854;28;20040;-83
2023/07/07 06:32:33;;;;;;;38.35;5.90;;;;;;;;;;5094312;28;20040;-83
2023/07/07 06:35:00;;;;;;;18.83;3.80;;;;;;;;;;5094188;28;20040;-84
2023/07/07 06:37:28;;;;;;;17.90;3.67;;;;;;;;;;5094153;28;20097;-83
2023/07/07 06:39:55;;;;;;;7.22;2.80;;;;;;;;;;5092807;28;20044;-85
2023/07/07 06:42:22;;;;;;;29.52;4.53;;;;;;;;;;5092213;28;20140;-82
2023/07/07 06:44:50;;;;;;;9.10;2.60;;;;;;;;;;5092811;28;20389;-82
2023/07/07 06:47:17;;;;;;;11.95;2.97;;;;;;;;;;5092818;28;20047;-82
2023/07/07 06:49:45;;;;;;;6.55;2.45;;;;;;;;;;5094008;28;20460;-82
2023/07/07 06:52:12;;;;;;;10.88;2.83;;;;;;;;;;5092656;28;20400;-82
2023/07/07 06:54:40;;;;;;;6.15;2.55;;;;;;;;;;5093850;28;20052;-82
2023/07/07 06:57:08;;;;;;;11.82;2.63;;;;;;;;;;5092331;28;20109;-83
2023/07/07 06:59:35;;;;;;;9.05;2.85;;;;;;;;;;5094172;28;20048;-83
2023/07/07 07:02:03;;;;;;;6.00;2.67;;;;;;;;;;5092408;28;20048;-82
2023/07/07 07:04:30;;;;;;;11.15;2.40;;;;;;;;;;5093829;28;20446;-82
2023/07/07 07:06:57;;;;;;;6.28;2.38;;;;;;;;;;5093823;28;20089;-85
2023/07/07 07:09:25;;;;;;;3.90;2.28;;;;;;;;;;5093466;28;20051;-82
2023/07/07 07:11:52;;;;;;;9.55;2.60;;;;;;;;;;5093428;28;20055;-81
2023/07/07 07:14:20;;;;;;;4.38;2.15;;;;;;;;;;5092277;28;20054;-82
2023/07/07 07:16:47;;;;;;;3.35;2.05;;;;;;;;;;5093739;28;20040;-81
2023/07/07 07:19:14;;;;;;;5.70;1.83;;;;;;;;;;5093367;28;20521;-81
2023/07/07 07:21:42;;;;;;;7.78;2.40;;;;;;;;;;5092426;28;20561;-83
2023/07/07 07:24:09;;;;;;;3.85;2.00;;;;;;;;;;5093103;28;20120;-83
2023/07/07 07:26:36;;;;;;;3.92;1.80;;;;;;;;;;5093489;28;20044;-83
2023/07/07 07:29:03;;;;;;;5.03;1.92;;;;;;;;;;5093251;28;20088;-83
2023/07/07 07:31:31;;;;;;;3.40;2.30;;;;;;;;;;5092043;28;20087;-84
2023/07/07 07:34:18;;;;;;;5.50;2.30;;;;;;;;;;5092051;28;20040;-83
2023/07/07 07:36:45;;;;;;;4.28;1.85;;;;;;;;;;5093210;28;20113;-82
2023/07/07 07:39:12;;;;;;;3.28;2.03;;;;;;;;;;5092160;28;20097;-83
2023/07/07 07:41:40;;;;;;;4.47;1.95;;;;;;;;;;5093025;28;20454;-83
2023/07/07 07:44:07;;;;;;;3.13;1.45;;;;;;;;;;5093463;28;20097;-83
2023/07/07 07:46:35;;;;;;;4.03;2.17;;;;;;;;;;5091978;28;20504;-83
2023/07/07 07:49:03;;;;;;;3.13;1.73;;;;;;;;;;5093160;28;20059;-84
2023/07/07 07:51:30;;;;;;;5.53;2.13;;;;;;;;;;5093166;28;20093;-85
2023/07/07 07:54:03;;;;;;;;;;;;;;;;;;5092764;28;20052;-84
2023/07/07 07:56:31;;;;;;;4.75;2.20;;;;;;;;;;5092243;28;19975;-92
2023/07/07 07:58:58;;;;;;;5.20;2.00;;;;;;;;;;5092102;28;20040;-84
2023/07/07 08:01:25;;;;;;;7.10;2.30;;;;;;;;;;5091762;28;20139;-86
2023/07/07 08:03:53;;;;;;;9.30;2.30;;;;;;;;;;5091902;28;20090;-85
2023/07/07 08:06:20;;;;;;;2.28;1.83;;;;;;;;;;5092160;28;20044;-86
2023/07/07 08:08:47;;;;;;;4.15;2.10;;;;;;;;;;5092334;28;20553;-83
2023/07/07 08:11:16;;;;;;;3.75;2.10;;;;;;;;;;5092232;28;20504;-85
2023/07/07 08:13:44;;;;;;;3.00;1.75;;;;;;;;;;5093466;28;20461;-86
2023/07/07 08:16:11;;;;;;;1.85;1.70;;;;;;;;;;5093210;28;20412;-88
2023/07/07 08:18:39;;;;;;;2.83;1.90;;;;;;;;;;5092285;28;20048;-90
2023/07/07 08:21:07;;;;;;;3.88;1.80;;;;;;;;;;5093007;28;20047;-85
2023/07/07 08:23:35;;;;;;;2.55;1.73;;;;;;;;;;5092118;28;20087;-85
2023/07/07 08:26:02;;;;;;;4.32;1.60;;;;;;;;;;5092530;28;20097;-91
2023/07/07 08:28:32;;;;;;;4.35;1.60;;;;;;;;;;5093245;28;20052;-85
2023/07/07 08:31:01;;;;;;;2.45;1.45;;;;;;;;;;5097243;28;20087;-84
2023/07/07 08:33:29;;;;;;;1.77;1.67;;;;;;;;;;5097649;28;20055;-89
2023/07/07 08:35:56;;;;;;;3.03;1.30;;;;;;;;;;5097829;28;20075;-84
2023/07/07 08:38:24;;;;;;;1.70;1.60;;;;;;;;;;5097255;28;20044;-84
2023/07/07 08:40:53;;;;;;;1.88;1.75;;;;;;;;;;5097452;28;20048;-89
2023/07/07 08:43:21;;;;;;;2.35;1.60;;;;;;;;;;5096919;28;20063;-84
2023/07/07 08:46:06;;;;;;;2.13;1.63;;;;;;;;;;5097256;28;20048;-84
2023/07/07 08:48:53;;;;;;;3.58;1.35;;;;;;;;;;5095807;28;20056;-82
2023/07/07 08:51:23;;;;;;;4.18;1.60;;;;;;;;;;5095454;28;20044;-84
2023/07/07 08:53:54;;;;;;;2.75;1.60;;;;;;;;;;5095409;28;20052;-85
2023/07/07 08:56:24;;;;;;;;;;;;;;;;;;5097360;28;20472;-85
2023/07/07 08:58:51;;;;;;;2.67;1.98;;;;;;;;;;5095813;28;19971;-85
2023/07/07 09:01:24;;;;;;;2.90;1.90;;;;;;;;;;5095613;28;20055;-86
2023/07/07 09:04:15;;;;;;;1.60;1.50;;;;;;;;;;5095315;28;20086;-83
2023/07/07 09:06:48;;;;;;;4.22;1.63;;;;;;;;;;5090147;28;20173;-86
2023/07/07 09:09:16;;;;;;;2.63;1.75;;;;;;;;;;5096513;28;20120;-84
2023/07/07 09:12:02;;;;;;;1.58;1.48;;;;;;;;;;5095509;28;20105;-86
2023/07/07 09:14:29;;;;;;;1.70;1.60;;;;;;;;;;5095434;28;20040;-87
2023/07/07 09:16:58;;;;;;;2.80;2.05;;;;;;;;;;5095555;28;20116;-85
2023/07/07 09:19:36;;;;;;;1.80;1.67;;;;;;;;;;5095521;28;20507;-87
2023/07/07 09:22:07;;;;;;;3.60;1.77;;;;;;;;;;5096030;28;20055;-83
2023/07/07 09:24:34;;;;;;;4.07;1.52;;;;;;;;;;5095160;28;20048;-83
2023/07/07 09:27:08;;;;;;;2.72;2.00;;;;;;;;;;5094495;28;20052;-87
2023/07/07 09:29:36;;;;;;;3.00;1.60;;;;;;;;;;5095098;28;20457;-84
2023/07/07 09:32:03;;;;;;;3.00;1.75;;;;;;;;;;5094487;28;20105;-84
2023/07/07 09:34:32;;;;;;;4.53;1.83;;;;;;;;;;5094924;28;20393;-85
2023/07/07 09:37:08;;;;;;;3.85;1.60;;;;;;;;;;5094697;28;20048;-83
2023/07/07 09:39:44;;;;;;;9.55;2.60;;;;;;;;;;5095198;28;20056;-84
2023/07/07 09:42:36;;;;;;;2.25;1.80;;;;;;;;;;5093755;28;20458;-84
2023/07/07 09:45:11;;;;;;;10.90;2.20;;;;;;;;;;5094600;28;20063;-85
2023/07/07 09:47:43;;;;;;;7.28;1.83;;;;;;;;;;5094647;28;20044;-84
2023/07/07 09:50:12;;;;;;;4.97;2.03;;;;;;;;;;5095718;28;20052;-86
2023/07/07 09:52:46;;;;;;;2.10;1.83;;;;;;;;;;5094557;28;20058;-85
2023/07/07 09:55:19;;;;;;;4.05;1.80;;;;;;;;;;5094719;28;20052;-85
2023/07/07 09:57:52;;;;;;;3.40;1.85;;;;;;;;;;5094401;28;20054;-85
2023/07/07 10:00:21;;;;;;;1.70;1.60;;;;;;;;;;5094728;28;20044;-86
2023/07/07 10:03:05;;;;;;;2.65;1.90;;;;;;;;;;5094457;28;20507;-85
2023/07/07 10:05:34;;;;;;;3.78;1.60;;;;;;;;;;5094409;28;20048;-85
2023/07/07 10:08:04;;;;;;;2.35;1.60;;;;;;;;;;5094303;28;20135;-85
2023/07/07 10:10:32;;;;;;;2.45;1.40;;;;;;;;;;5094487;28;20113;-86
2023/07/07 10:12:59;;;;;;;2.25;1.40;;;;;;;;;;5095630;28;20439;-88
2023/07/07 10:15:45;;;;;;;1.60;1.50;;;;;;;;;;5093708;28;20350;-83
2023/07/07 10:18:14;;;;;;;2.63;1.80;;;;;;;;;;5093511;28;20276;-86
2023/07/07 10:20:41;;;;;;;3.28;1.35;;;;;;;;;;5093855;28;20535;-84
2023/07/07 10:23:13;;;;;;;2.90;1.50;;;;;;;;;;5093381;28;20434;-84
2023/07/07 10:25:44;;;;;;;4.35;1.58;;;;;;;;;;5093714;28;20055;-88
2023/07/07 10:28:13;;;;;;;2.42;1.58;;;;;;;;;;5094030;28;20079;-83
2023/07/07 10:30:41;;;;;;;1.80;1.63;;;;;;;;;;5093645;28;20449;-84
2023/07/07 10:33:10;;;;;;;8.38;2.00;;;;;;;;;;5093652;28;20052;-83
2023/07/07 10:35:37;;;;;;;7.13;2.28;;;;;;;;;;5094369;28;20048;-84
2023/07/07 10:38:04;;;;;;;3.08;1.85;;;;;;;;;;5094148;28;20051;-83
2023/07/07 10:40:32;;;;;;;1.88;1.77;;;;;;;;;;5094629;28;20067;-84
2023/07/07 10:43:00;;;;;;;3.25;1.52;;;;;;;;;;5093180;28;20073;-84
2023/07/07 10:45:28;;;;;;;5.78;1.98;;;;;;;;;;5093562;28;20117;-84
2023/07/07 10:47:56;;;;;;;3.40;2.00;;;;;;;;;;5094155;28;20055;-83
2023/07/07 10:50:28;;;;;;;3.75;1.80;;;;;;;;;;5092844;28;20135;-83
2023/07/07 10:52:58;;;;;;;4.30;1.85;;;;;;;;;;5092631;28;20438;-83
2023/07/07 10:55:31;;;;;;;4.20;1.60;;;;;;;;;;5094201;28;20071;-84
2023/07/07 10:58:06;;;;;;;1.60;1.50;;;;;;;;;;5093150;28;20048;-83
2023/07/07 11:00:59;;;;;;;2.45;1.90;;;;;;;;;;5093965;28;20048;-83
2023/07/07 11:03:33;;;;;;;1.55;1.42;;;;;;;;;;5093209;28;20101;-84
2023/07/07 11:06:04;;;;;;;1.80;1.70;;;;;;;;;;5094170;28;20135;-85
2023/07/07 11:08:37;;;;;;;2.85;1.90;;;;;;;;;;5093008;28;20048;-84
2023/07/07 11:11:11;;;;;;;8.27;2.57;;;;;;;;;;5093843;28;20052;-84
2023/07/07 11:13:44;;;;;;;4.93;1.92;;;;;;;;;;5092905;28;20125;-85
2023/07/07 11:16:30;;;;;;;6.38;2.60;;;;;;;;;;5092596;28;20225;-87
2023/07/07 11:19:19;;;;;;;1.80;1.70;;;;;;;;;;5092504;28;20047;-85
2023/07/07 11:21:52;;;;;;;1.92;1.83;;;;;;;;;;5093187;28;20066;-86
2023/07/07 11:24:28;;;;;;;2.15;1.92;;;;;;;;;;5091694;28;20052;-86
2023/07/07 11:27:18;;;;;;;2.75;1.92;;;;;;;;;;5093585;28;20058;-82
2023/07/07 11:30:01;;;;;;;5.40;2.40;;;;;;;;;;5093622;28;20040;-83
2023/07/07 11:32:43;;;;;;;2.03;1.90;;;;;;;;;;5092506;28;20135;-85
2023/07/07 11:35:19;;;;;;;3.60;2.08;;;;;;;;;;5092195;28;20044;-83
2023/07/07 11:37:52;;;;;;;5.40;1.95;;;;;;;;;;5092617;28;20453;-83
2023/07/07 11:40:38;;;;;;;1.83;1.73;;;;;;;;;;5092339;28;20058;-84
2023/07/07 11:43:15;;;;;;;2.10;1.90;;;;;;;;;;5092280;28;20052;-85
2023/07/07 11:46:01;;;;;;;2.30;2.08;;;;;;;;;;5093051;28;20105;-83
2023/07/07 11:48:47;;;;;;;3.60;2.30;;;;;;;;;;5092309;28;20168;-83
2023/07/07 11:51:34;;;;;;;4.72;2.35;;;;;;;;;;5092161;28;20048;-88
2023/07/07 11:54:07;;;;;;;2.30;2.10;;;;;;;;;;5092169;28;20055;-84
2023/07/07 11:56:41;;;;;;;2.40;2.20;;;;;;;;;;5093281;28;20086;-82
2023/07/07 11:59:08;;;;;;;2.72;2.22;;;;;;;;;;5092644;28;20565;-86
2023/07/07 12:01:39;;;;;;;1.98;1.77;;;;;;;;;;5092685;28;20515;-81
2023/07/07 12:04:06;;;;;;;2.08;1.98;;;;;;;;;;5092092;28;20079;-82
2023/07/07 12:06:34;;;;;;;2.35;2.15;;;;;;;;;;5091779;28;20059;-83
2023/07/07 12:09:10;;;;;;;2.92;2.00;;;;;;;;;;5091760;28;20048;-84
2023/07/07 12:11:43;;;;;;;2.38;2.05;;;;;;;;;;5091209;28;20052;-83
2023/07/07 12:14:23;;;;;;;6.82;2.67;;;;;;;;;;5091608;28;20044;-83
2023/07/07 12:16:51;;;;;;;22.15;3.38;;;;;;;;;;5091703;28;20055;-84
2023/07/07 12:19:25;;;;;;;14.90;2.85;;;;;;;;;;5092804;28;20102;-84
2023/07/07 12:21:54;;;;;;;4.63;2.42;;;;;;;;;;5091608;28;20048;-84
2023/07/07 12:24:29;;;;;;;5.88;2.80;;;;;;;;;;5091544;28;20048;-83
2023/07/07 12:27:04;;;;;;;12.80;3.10;;;;;;;;;;5092679;28;20048;-83
2023/07/07 12:29:31;;;;;;;2.30;2.10;;;;;;;;;;5091595;28;20063;-83
2023/07/07 12:31:58;;;;;;;2.67;2.35;;;;;;;;;;5092393;28;20090;-83
2023/07/07 12:34:36;;;;;;;2.53;2.20;;;;;;;;;;5091434;28;20048;-83
2023/07/07 12:37:12;;;;;;;2.42;2.17;;;;;;;;;;5092504;28;20476;-84
2023/07/07 12:39:50;;;;;;;3.17;2.00;;;;;;;;;;5092531;28;20065;-83
2023/07/07 12:42:17;;;;;;;2.22;2.13;;;;;;;;;;5092268;28;20060;-83
2023/07/07 12:44:48;;;;;;;4.03;2.22;;;;;;;;;;5092478;28;20052;-83
2023/07/07 12:47:20;;;;;;;4.72;2.53;;;;;;;;;;5092312;28;20052;-83
2023/07/07 12:49:52;;;;;;;3.55;2.47;;;;;;;;;;5091216;28;20135;-84
2023/07/07 12:52:19;;;;;;;3.55;2.30;;;;;;;;;;5091446;28;20077;-83
2023/07/07 12:54:54;;;;;;;2.55;2.17;;;;;;;;;;5092418;28;20074;-83
2023/07/07 12:57:25;;;;;;;3.20;1.95;;;;;;;;;;5091102;28;20488;-83
2023/07/07 12:59:52;;;;;;;2.15;1.95;;;;;;;;;;5091023;28;20040;-84
2023/07/07 13:02:21;;;;;;;2.15;2.03;;;;;;;;;;5091200;28;20056;-82
2023/07/07 13:04:50;;;;;;;3.10;2.05;;;;;;;;;;5091247;28;20052;-83
2023/07/07 13:07:19;;;;;;;3.78;2.25;;;;;;;;;;5091402;28;20048;-83
2023/07/07 13:09:50;;;;;;;5.03;2.08;;;;;;;;;;5091431;28;20446;-88
2023/07/07 13:12:36;;;;;;;4.68;2.17;;;;;;;;;;5091803;28;20048;-83
2023/07/07 13:15:13;;;;;;;3.80;2.30;;;;;;;;;;5094285;28;20051;-87
2023/07/07 13:17:40;;;;;;;2.17;1.88;;;;;;;;;;5095321;28;20148;-83
2023/07/07 13:20:14;;;;;;;12.20;3.05;;;;;;;;;;5095364;28;20396;-87
2023/07/07 13:22:41;;;;;;;;;;;;;;;;;;5097027;28;20040;-95
2023/07/07 13:25:17;;;;;;;4.18;2.70;;;;;;;;;;5095528;28;19927;-84
2023/07/07 13:27:44;;;;;;;2.38;2.25;;;;;;;;;;5095902;28;20048;-83
2023/07/07 13:30:32;;;;;;;3.95;2.38;;;;;;;;;;5095065;28;20109;-83
2023/07/07 13:33:03;;;;;;;3.47;2.17;;;;;;;;;;5095720;28;20044;-87
2023/07/07 13:35:31;;;;;;;7.57;3.17;;;;;;;;;;5094877;28;20488;-83
2023/07/07 13:38:06;;;;;;;15.25;3.45;;;;;;;;;;5096071;28;20489;-84
2023/07/07 13:40:37;;;;;;;23.48;3.92;;;;;;;;;;5094912;28;20055;-82
2023/07/07 13:43:06;;;;;;;3.65;2.38;;;;;;;;;;5094058;28;20063;-83
2023/07/07 13:45:35;;;;;;;2.50;2.25;;;;;;;;;;5094226;28;20150;-82
2023/07/07 13:48:08;;;;;;;2.53;2.33;;;;;;;;;;5093895;28;20052;-82
2023/07/07 13:50:36;;;;;;;3.25;2.58;;;;;;;;;;5094047;28;20048;-83
2023/07/07 13:53:05;;;;;;;2.47;1.88;;;;;;;;;;5094030;28;20048;-82
2023/07/07 13:55:34;;;;;;;2.75;2.30;;;;;;;;;;5095151;28;20071;-83
2023/07/07 13:58:02;;;;;;;4.60;2.05;;;;;;;;;;5093733;28;20101;-83
2023/07/07 14:00:32;;;;;;;2.83;2.40;;;;;;;;;;5094536;28;20040;-82
2023/07/07 14:03:01;;;;;;;3.50;2.30;;;;;;;;;;5093670;28;20048;-83
2023/07/07 14:05:30;;;;;;;2.60;2.40;;;;;;;;;;5093629;28;20479;-82
2023/07/07 14:07:58;;;;;;;2.20;2.08;;;;;;;;;;5094922;28;20056;-85
2023/07/07 14:10:30;;;;;;;2.65;2.40;;;;;;;;;;5093753;28;20462;-86
2023/07/07 14:12:58;;;;;;;4.50;2.60;;;;;;;;;;5093722;28;20051;-84
2023/07/07 14:15:30;;;;;;;2.60;2.40;;;;;;;;;;5093587;28;20105;-84
2023/07/07 14:18:00;;;;;;;5.10;2.30;;;;;;;;;;5093381;28;20101;-83
2023/07/07 14:20:31;;;;;;;13.32;2.72;;;;;;;;;;5093683;28;20076;-88
2023/07/07 14:22:58;;;;;;;7.28;2.75;;;;;;;;;;5093511;28;20164;-83
2023/07/07 14:25:26;;;;;;;2.72;2.50;;;;;;;;;;5093567;28;20117;-82
2023/07/07 14:27:59;;;;;;;3.03;2.33;;;;;;;;;;5092407;28;20044;-82
2023/07/07 14:30:26;;;;;;;3.60;2.50;;;;;;;;;;5094449;28;20506;-83
2023/07/07 14:32:55;;;;;;;2.28;2.00;;;;;;;;;;5093991;28;20123;-83
2023/07/07 14:35:29;;;;;;;4.15;2.47;;;;;;;;;;5092910;28;20048;-82
2023/07/07 14:37:57;;;;;;;2.10;2.00;;;;;;;;;;5092703;28;20064;-83
2023/07/07 14:40:28;;;;;;;2.38;2.28;;;;;;;;;;5093404;28;20105;-83
2023/07/07 14:42:55;;;;;;;2.80;2.28;;;;;;;;;;5092810;28;20052;-83
2023/07/07 14:45:24;;;;;;;2.65;2.13;;;;;;;;;;5092964;28;20051;-83
2023/07/07 14:47:51;;;;;;;2.30;2.10;;;;;;;;;;5092558;28;20055;-82
2023/07/07 14:50:18;;;;;;;2.22;2.13;;;;;;;;;;5092766;28;20052;-83
2023/07/07 14:52:47;;;;;;;2.45;2.28;;;;;;;;;;5092376;28;20553;-84
2023/07/07 14:55:16;;;;;;;4.70;2.67;;;;;;;;;;5092725;28;20051;-82
2023/07/07 14:57:45;;;;;;;2.55;2.35;;;;;;;;;;5093880;28;20047;-83
2023/07/07 15:00:25;;;;;;;2.40;2.20;;;;;;;;;;5092382;28;20055;-82
2023/07/07 15:02:52;;;;;;;2.47;2.28;;;;;;;;;;5093154;28;20051;-83